sensor_id;sensor_type;location;lat;lon;timestamp;temperature;humidity
25128;DHT22;13107;51.304;6.866;2023-07-29T00:03:42;17.70;99.90
25128;DHT22;13107;51.304;6.866;2023-07-29T00:07:43;17.70;99.90
25128;DHT22;13107;51.304;6.866;2023-07-29T00:11:45;17.80;99.90
25128;DHT22;13107;51.304;6.866;2023-07-29T00:15:47;17.90;99.90
25128;DHT22;13107;51.304;6.866;2023-07-29T00:19:49;17.90;99.90
25128;DHT22;13107;51.304;6.866;2023-07-29T00:23:50;18.00;99.90
25128;DHT22;13107;51.304;6.866;2023-07-29T00:27:54;18.00;99.90
25128;DHT22;13107;51.304;6.866;2023-07-29T00:31:55;18.10;99.90
25128;DHT22;13107;51.304;6.866;2023-07-29T00:35:57;18.20;99.90
25128;DHT22;13107;51.304;6.866;2023-07-29T00:40:06;18.10;99.90
25128;DHT22;13107;51.304;6.866;2023-07-29T00:44:10;18.10;99.90
25128;DHT22;13107;51.304;6.866;2023-07-29T00:48:12;18.20;99.90
25128;DHT22;13107;51.304;6.866;2023-07-29T00:52:14;18.10;99.90
25128;DHT22;13107;51.304;6.866;2023-07-29T00:56:15;18.00;99.90
25128;DHT22;13107;51.304;6.866;2023-07-29T01:00:17;18.00;99.90
25128;DHT22;13107;51.304;6.866;2023-07-29T01:04:19;17.90;99.90
25128;DHT22;13107;51.304;6.866;2023-07-29T01:08:33;17.90;99.90
25128;DHT22;13107;51.304;6.866;2023-07-29T01:12:58;17.80;99.90
25128;DHT22;13107;51.304;6.866;2023-07-29T01:17:03;17.90;99.90
25128;DHT22;13107;51.304;6.866;2023-07-29T01:21:08;17.90;99.90
25128;DHT22;13107;51.304;6.866;2023-07-29T01:25:10;17.90;99.90
25128;DHT22;13107;51.304;6.866;2023-07-29T01:29:12;17.90;99.90
25128;DHT22;13107;51.304;6.866;2023-07-29T01:33:39;17.90;99.90
25128;DHT22;13107;51.304;6.866;2023-07-29T01:37:45;17.90;99.90
25128;DHT22;13107;51.304;6.866;2023-07-29T01:41:49;17.90;99.90
25128;DHT22;13107;51.304;6.866;2023-07-29T01:45:52;18.00;99.90
25128;DHT22;13107;51.304;6.866;2023-07-29T01:49:54;18.00;99.90
25128;DHT22;13107;51.304;6.866;2023-07-29T01:53:55;18.00;99.90
25128;DHT22;13107;51.304;6.866;2023-07-29T01:57:57;18.00;99.90
25128;DHT22;13107;51.304;6.866;2023-07-29T02:02:00;18.00;99.90
25128;DHT22;13107;51.304;6.866;2023-07-29T02:06:01;18.10;99.90
25128;DHT22;13107;51.304;6.866;2023-07-29T02:10:03;18.00;99.90
25128;DHT22;13107;51.304;6.866;2023-07-29T02:14:05;18.10;99.90
25128;DHT22;13107;51.304;6.866;2023-07-29T02:18:07;18.10;99.90
25128;DHT22;13107;51.304;6.866;2023-07-29T02:22:10;18.00;99.90
25128;DHT22;13107;51.304;6.866;2023-07-29T02:26:12;18.00;99.90
25128;DHT22;13107;51.304;6.866;2023-07-29T02:30:20;18.10;99.90
25128;DHT22;13107;51.304;6.866;2023-07-29T02:34:22;18.20;99.90
25128;DHT22;13107;51.304;6.866;2023-07-29T02:38:24;18.10;99.90
25128;DHT22;13107;51.304;6.866;2023-07-29T02:42:26;18.10;99.90
25128;DHT22;13107;51.304;6.866;2023-07-29T02:46:27;18.10;99.90
25128;DHT22;13107;51.304;6.866;2023-07-29T02:50:29;18.20;99.90
25128;DHT22;13107;51.304;6.866;2023-07-29T02:54:31;18.20;99.90
25128;DHT22;13107;51.304;6.866;2023-07-29T02:58:32;18.10;99.90
25128;DHT22;13107;51.304;6.866;2023-07-29T03:02:34;18.20;99.90
25128;DHT22;13107;51.304;6.866;2023-07-29T03:06:36;18.30;99.90
25128;DHT22;13107;51.304;6.866;2023-07-29T03:10:38;18.20;99.90
25128;DHT22;13107;51.304;6.866;2023-07-29T03:14:40;18.20;99.90
25128;DHT22;13107;51.304;6.866;2023-07-29T03:18:44;18.20;99.90
25128;DHT22;13107;51.304;6.866;2023-07-29T03:22:46;18.30;99.90
25128;DHT22;13107;51.304;6.866;2023-07-29T03:26:48;18.20;99.90
25128;DHT22;13107;51.304;6.866;2023-07-29T03:30:49;18.20;99.90
25128;DHT22;13107;51.304;6.866;2023-07-29T03:34:51;18.30;99.90
25128;DHT22;13107;51.304;6.866;2023-07-29T03:38:53;18.20;99.90
25128;DHT22;13107;51.304;6.866;2023-07-29T03:42:55;18.20;99.90
25128;DHT22;13107;51.304;6.866;2023-07-29T03:46:57;18.20;99.90
25128;DHT22;13107;51.304;6.866;2023-07-29T03:50:58;18.10;99.90
25128;DHT22;13107;51.304;6.866;2023-07-29T03:55:00;18.20;99.90
25128;DHT22;13107;51.304;6.866;2023-07-29T03:59:03;18.00;99.90
25128;DHT22;13107;51.304;6.866;2023-07-29T04:03:05;18.00;99.90
25128;DHT22;13107;51.304;6.866;2023-07-29T04:07:07;18.20;99.90
25128;DHT22;13107;51.304;6.866;2023-07-29T04:11:09;18.20;99.90
25128;DHT22;13107;51.304;6.866;2023-07-29T04:15:11;18.30;99.90
25128;DHT22;13107;51.304;6.866;2023-07-29T04:19:12;18.30;99.90
25128;DHT22;13107;51.304;6.866;2023-07-29T04:23:14;18.20;99.90
25128;DHT22;13107;51.304;6.866;2023-07-29T04:27:16;18.20;99.90
25128;DHT22;13107;51.304;6.866;2023-07-29T04:31:17;18.20;99.90
25128;DHT22;13107;51.304;6.866;2023-07-29T04:35:19;18.10;99.90
25128;DHT22;13107;51.304;6.866;2023-07-29T04:39:21;18.20;99.90
25128;DHT22;13107;51.304;6.866;2023-07-29T04:43:27;18.10;99.90
25128;DHT22;13107;51.304;6.866;2023-07-29T04:47:28;18.10;99.90
25128;DHT22;13107;51.304;6.866;2023-07-29T04:51:33;18.10;99.90
25128;DHT22;13107;51.304;6.866;2023-07-29T04:55:35;18.00;99.90
25128;DHT22;13107;51.304;6.866;2023-07-29T04:59:37;17.90;99.90
25128;DHT22;13107;51.304;6.866;2023-07-29T05:03:39;17.90;99.90
25128;DHT22;13107;51.304;6.866;2023-07-29T05:07:41;17.90;99.90
25128;DHT22;13107;51.304;6.866;2023-07-29T05:11:43;17.90;99.90
25128;DHT22;13107;51.304;6.866;2023-07-29T05:15:48;17.90;99.90
25128;DHT22;13107;51.304;6.866;2023-07-29T05:19:50;17.90;99.90
25128;DHT22;13107;51.304;6.866;2023-07-29T05:23:51;17.90;99.90
25128;DHT22;13107;51.304;6.866;2023-07-29T05:27:53;18.00;99.90
25128;DHT22;13107;51.304;6.866;2023-07-29T05:31:55;18.00;99.90
25128;DHT22;13107;51.304;6.866;2023-07-29T05:35:58;18.00;99.90
25128;DHT22;13107;51.304;6.866;2023-07-29T05:40:00;18.00;99.90
25128;DHT22;13107;51.304;6.866;2023-07-29T05:44:01;18.00;99.90
25128;DHT22;13107;51.304;6.866;2023-07-29T05:48:03;18.00;99.90
25128;DHT22;13107;51.304;6.866;2023-07-29T05:52:05;17.90;99.90
25128;DHT22;13107;51.304;6.866;2023-07-29T05:56:07;17.90;99.90
25128;DHT22;13107;51.304;6.866;2023-07-29T06:00:09;17.90;99.90
25128;DHT22;13107;51.304;6.866;2023-07-29T06:04:11;17.90;99.90
25128;DHT22;13107;51.304;6.866;2023-07-29T06:08:13;17.90;99.90
25128;DHT22;13107;51.304;6.866;2023-07-29T06:12:15;17.90;99.90
25128;DHT22;13107;51.304;6.866;2023-07-29T06:16:16;17.90;99.90
25128;DHT22;13107;51.304;6.866;2023-07-29T06:20:18;18.00;99.90
25128;DHT22;13107;51.304;6.866;2023-07-29T06:24:20;18.00;99.90
25128;DHT22;13107;51.304;6.866;2023-07-29T06:28:21;17.90;99.90
25128;DHT22;13107;51.304;6.866;2023-07-29T06:32:23;17.80;99.90
25128;DHT22;13107;51.304;6.866;2023-07-29T06:36:25;17.80;99.90
25128;DHT22;13107;51.304;6.866;2023-07-29T06:40:27;18.00;99.90
25128;DHT22;13107;51.304;6.866;2023-07-29T06:44:28;18.00;99.90
25128;DHT22;13107;51.304;6.866;2023-07-29T06:48:30;18.00;99.90
25128;DHT22;13107;51.304;6.866;2023-07-29T06:52:32;18.00;99.90
25128;DHT22;13107;51.304;6.866;2023-07-29T06:56:34;18.00;99.90
25128;DHT22;13107;51.304;6.866;2023-07-29T07:00:36;18.20;99.90
25128;DHT22;13107;51.304;6.866;2023-07-29T07:04:38;18.30;99.90
25128;DHT22;13107;51.304;6.866;2023-07-29T07:08:39;18.60;99.90
25128;DHT22;13107;51.304;6.866;2023-07-29T07:12:42;18.70;99.90
25128;DHT22;13107;51.304;6.866;2023-07-29T07:16:44;19.10;99.90
25128;DHT22;13107;51.304;6.866;2023-07-29T07:20:48;19.60;99.90
25128;DHT22;13107;51.304;6.866;2023-07-29T07:24:51;19.50;99.90
25128;DHT22;13107;51.304;6.866;2023-07-29T07:28:52;19.30;99.90
25128;DHT22;13107;51.304;6.866;2023-07-29T07:32:54;19.50;99.90
25128;DHT22;13107;51.304;6.866;2023-07-29T07:36:56;19.50;99.90
25128;DHT22;13107;51.304;6.866;2023-07-29T07:40:58;19.40;99.90
25128;DHT22;13107;51.304;6.866;2023-07-29T07:44:59;19.50;99.90
25128;DHT22;13107;51.304;6.866;2023-07-29T07:49:01;19.40;99.90
25128;DHT22;13107;51.304;6.866;2023-07-29T07:53:03;19.40;99.90
25128;DHT22;13107;51.304;6.866;2023-07-29T07:57:05;19.40;99.90
25128;DHT22;13107;51.304;6.866;2023-07-29T08:01:08;19.40;99.90
25128;DHT22;13107;51.304;6.866;2023-07-29T08:05:10;19.40;99.90
25128;DHT22;13107;51.304;6.866;2023-07-29T08:09:11;19.50;99.90
25128;DHT22;13107;51.304;6.866;2023-07-29T08:13:13;19.50;99.90
25128;DHT22;13107;51.304;6.866;2023-07-29T08:17:15;19.40;99.90
25128;DHT22;13107;51.304;6.866;2023-07-29T08:21:17;19.50;99.90
25128;DHT22;13107;51.304;6.866;2023-07-29T08:25:18;19.70;99.90
25128;DHT22;13107;51.304;6.866;2023-07-29T08:29:20;19.60;99.90
25128;DHT22;13107;51.304;6.866;2023-07-29T08:33:22;19.60;99.90
25128;DHT22;13107;51.304;6.866;2023-07-29T08:37:24;19.90;99.90
25128;DHT22;13107;51.304;6.866;2023-07-29T08:41:32;20.60;99.90
25128;DHT22;13107;51.304;6.866;2023-07-29T08:45:36;21.40;99.90
25128;DHT22;13107;51.304;6.866;2023-07-29T08:49:41;22.20;99.90
25128;DHT22;13107;51.304;6.866;2023-07-29T08:53:43;23.10;99.90
25128;DHT22;13107;51.304;6.866;2023-07-29T08:57:46;23.80;99.90
25128;DHT22;13107;51.304;6.866;2023-07-29T09:01:48;24.50;99.90
25128;DHT22;13107;51.304;6.866;2023-07-29T09:05:51;24.80;99.90
25128;DHT22;13107;51.304;6.866;2023-07-29T09:09:53;25.40;99.90
25128;DHT22;13107;51.304;6.866;2023-07-29T09:13:54;25.40;99.90
25128;DHT22;13107;51.304;6.866;2023-07-29T09:17:58;24.40;99.90
25128;DHT22;13107;51.304;6.866;2023-07-29T09:22:03;23.60;99.90
25128;DHT22;13107;51.304;6.866;2023-07-29T09:26:05;22.50;99.90
25128;DHT22;13107;51.304;6.866;2023-07-29T09:30:15;21.90;99.90
25128;DHT22;13107;51.304;6.866;2023-07-29T09:34:18;21.20;99.90
25128;DHT22;13107;51.304;6.866;2023-07-29T09:38:29;20.90;99.90
25128;DHT22;13107;51.304;6.866;2023-07-29T09:42:31;20.50;99.90
25128;DHT22;13107;51.304;6.866;2023-07-29T09:50:37;20.10;99.90
25128;DHT22;13107;51.304;6.866;2023-07-29T09:54:38;19.80;99.90
25128;DHT22;13107;51.304;6.866;2023-07-29T09:58:43;19.90;99.90
25128;DHT22;13107;51.304;6.866;2023-07-29T10:02:45;19.90;99.90
25128;DHT22;13107;51.304;6.866;2023-07-29T10:06:48;20.50;99.90
25128;DHT22;13107;51.304;6.866;2023-07-29T10:10:50;21.90;99.90
25128;DHT22;13107;51.304;6.866;2023-07-29T10:14:52;23.00;99.90
25128;DHT22;13107;51.304;6.866;2023-07-29T10:18:55;23.40;99.90
25128;DHT22;13107;51.304;6.866;2023-07-29T10:23:00;24.00;99.90
25128;DHT22;13107;51.304;6.866;2023-07-29T10:27:02;23.70;99.90
25128;DHT22;13107;51.304;6.866;2023-07-29T10:31:04;23.40;99.90
25128;DHT22;13107;51.304;6.866;2023-07-29T10:35:07;23.10;99.90
25128;DHT22;13107;51.304;6.866;2023-07-29T10:39:09;22.60;99.90
25128;DHT22;13107;51.304;6.866;2023-07-29T10:43:14;22.20;99.90
25128;DHT22;13107;51.304;6.866;2023-07-29T10:47:23;21.70;99.90
25128;DHT22;13107;51.304;6.866;2023-07-29T10:51:27;21.30;99.90
25128;DHT22;13107;51.304;6.866;2023-07-29T10:55:35;21.30;99.90
25128;DHT22;13107;51.304;6.866;2023-07-29T10:59:40;21.40;99.90
25128;DHT22;13107;51.304;6.866;2023-07-29T11:04:01;21.80;99.90
25128;DHT22;13107;51.304;6.866;2023-07-29T11:08:37;22.10;99.90
25128;DHT22;13107;51.304;6.866;2023-07-29T11:12:51;22.00;99.90
25128;DHT22;13107;51.304;6.866;2023-07-29T11:16:53;21.70;99.90
25128;DHT22;13107;51.304;6.866;2023-07-29T11:20:56;21.80;99.90
25128;DHT22;13107;51.304;6.866;2023-07-29T11:24:58;21.70;99.90
25128;DHT22;13107;51.304;6.866;2023-07-29T11:29:00;21.60;99.90
25128;DHT22;13107;51.304;6.866;2023-07-29T11:33:03;21.60;99.90
25128;DHT22;13107;51.304;6.866;2023-07-29T11:37:05;21.40;99.90
25128;DHT22;13107;51.304;6.866;2023-07-29T11:41:08;21.20;99.90
25128;DHT22;13107;51.304;6.866;2023-07-29T11:45:10;21.50;99.90
25128;DHT22;13107;51.304;6.866;2023-07-29T11:49:12;22.50;99.90
25128;DHT22;13107;51.304;6.866;2023-07-29T11:53:15;22.80;99.90
25128;DHT22;13107;51.304;6.866;2023-07-29T11:57:18;22.70;99.90
25128;DHT22;13107;51.304;6.866;2023-07-29T12:01:21;22.40;99.90
25128;DHT22;13107;51.304;6.866;2023-07-29T12:05:24;22.70;99.90
25128;DHT22;13107;51.304;6.866;2023-07-29T12:09:27;22.80;99.90
25128;DHT22;13107;51.304;6.866;2023-07-29T12:13:29;22.70;99.90
25128;DHT22;13107;51.304;6.866;2023-07-29T12:17:31;23.20;99.90
25128;DHT22;13107;51.304;6.866;2023-07-29T12:21:33;23.70;99.90
25128;DHT22;13107;51.304;6.866;2023-07-29T12:25:35;23.60;99.90
25128;DHT22;13107;51.304;6.866;2023-07-29T12:29:40;23.70;99.90
25128;DHT22;13107;51.304;6.866;2023-07-29T12:33:43;23.80;99.90
25128;DHT22;13107;51.304;6.866;2023-07-29T12:37:45;24.10;99.90
25128;DHT22;13107;51.304;6.866;2023-07-29T12:41:51;24.10;99.90
25128;DHT22;13107;51.304;6.866;2023-07-29T12:45:53;24.10;99.90
25128;DHT22;13107;51.304;6.866;2023-07-29T12:49:54;23.90;99.90
25128;DHT22;13107;51.304;6.866;2023-07-29T12:53:56;24.40;99.90
25128;DHT22;13107;51.304;6.866;2023-07-29T12:57:58;24.80;99.90
25128;DHT22;13107;51.304;6.866;2023-07-29T13:02:00;25.30;99.90
25128;DHT22;13107;51.304;6.866;2023-07-29T13:06:02;24.90;99.90
25128;DHT22;13107;51.304;6.866;2023-07-29T13:10:04;24.60;99.90
25128;DHT22;13107;51.304;6.866;2023-07-29T13:14:06;24.40;99.90
25128;DHT22;13107;51.304;6.866;2023-07-29T13:18:08;24.30;99.90
25128;DHT22;13107;51.304;6.866;2023-07-29T13:22:10;24.10;99.90
25128;DHT22;13107;51.304;6.866;2023-07-29T13:26:11;23.60;99.90
25128;DHT22;13107;51.304;6.866;2023-07-29T13:30:13;23.30;99.90
25128;DHT22;13107;51.304;6.866;2023-07-29T13:34:15;23.00;99.90
25128;DHT22;13107;51.304;6.866;2023-07-29T13:38:16;22.90;99.90
25128;DHT22;13107;51.304;6.866;2023-07-29T13:42:18;22.60;99.90
25128;DHT22;13107;51.304;6.866;2023-07-29T13:46:20;22.30;99.90
25128;DHT22;13107;51.304;6.866;2023-07-29T13:50:22;22.20;99.90
25128;DHT22;13107;51.304;6.866;2023-07-29T13:54:24;22.10;99.90
25128;DHT22;13107;51.304;6.866;2023-07-29T13:58:26;21.90;99.90
25128;DHT22;13107;51.304;6.866;2023-07-29T14:02:27;21.80;99.90
25128;DHT22;13107;51.304;6.866;2023-07-29T14:06:30;21.60;99.90
25128;DHT22;13107;51.304;6.866;2023-07-29T14:10:46;21.50;99.90
25128;DHT22;13107;51.304;6.866;2023-07-29T14:14:48;21.40;99.90
25128;DHT22;13107;51.304;6.866;2023-07-29T14:18:50;21.60;99.90
25128;DHT22;13107;51.304;6.866;2023-07-29T14:22:51;21.90;99.90
25128;DHT22;13107;51.304;6.866;2023-07-29T14:26:53;22.20;99.90
25128;DHT22;13107;51.304;6.866;2023-07-29T14:30:55;22.20;99.90
25128;DHT22;13107;51.304;6.866;2023-07-29T14:34:57;22.10;99.90
25128;DHT22;13107;51.304;6.866;2023-07-29T14:38:58;22.20;99.90
25128;DHT22;13107;51.304;6.866;2023-07-29T14:43:00;22.10;99.90
25128;DHT22;13107;51.304;6.866;2023-07-29T14:47:05;21.90;99.90
25128;DHT22;13107;51.304;6.866;2023-07-29T14:51:06;21.80;99.90
25128;DHT22;13107;51.304;6.866;2023-07-29T14:55:08;21.50;99.90
25128;DHT22;13107;51.304;6.866;2023-07-29T14:59:10;21.30;99.90
25128;DHT22;13107;51.304;6.866;2023-07-29T15:03:12;21.10;99.90
25128;DHT22;13107;51.304;6.866;2023-07-29T15:07:14;21.00;99.90
25128;DHT22;13107;51.304;6.866;2023-07-29T15:11:16;20.90;99.90
25128;DHT22;13107;51.304;6.866;2023-07-29T15:15:18;21.00;99.90
25128;DHT22;13107;51.304;6.866;2023-07-29T15:19:19;21.10;99.90
25128;DHT22;13107;51.304;6.866;2023-07-29T15:23:22;21.60;99.90
25128;DHT22;13107;51.304;6.866;2023-07-29T15:27:23;22.10;99.90
25128;DHT22;13107;51.304;6.866;2023-07-29T15:31:25;22.20;99.90
25128;DHT22;13107;51.304;6.866;2023-07-29T15:35:27;22.30;99.90
25128;DHT22;13107;51.304;6.866;2023-07-29T15:39:29;22.30;99.90
25128;DHT22;13107;51.304;6.866;2023-07-29T15:43:31;22.30;99.90
25128;DHT22;13107;51.304;6.866;2023-07-29T15:47:32;22.30;99.90
25128;DHT22;13107;51.304;6.866;2023-07-29T15:51:35;22.40;99.90
25128;DHT22;13107;51.304;6.866;2023-07-29T15:55:37;22.40;99.90
25128;DHT22;13107;51.304;6.866;2023-07-29T15:59:38;22.50;99.90
25128;DHT22;13107;51.304;6.866;2023-07-29T16:03:40;22.60;99.90
25128;DHT22;13107;51.304;6.866;2023-07-29T16:07:43;22.70;99.90
25128;DHT22;13107;51.304;6.866;2023-07-29T16:11:44;22.50;99.90
25128;DHT22;13107;51.304;6.866;2023-07-29T16:15:46;22.50;99.90
25128;DHT22;13107;51.304;6.866;2023-07-29T16:19:53;22.50;99.90
25128;DHT22;13107;51.304;6.866;2023-07-29T16:23:55;22.60;99.90
25128;DHT22;13107;51.304;6.866;2023-07-29T16:27:57;22.70;99.90
25128;DHT22;13107;51.304;6.866;2023-07-29T16:31:59;22.80;99.90
25128;DHT22;13107;51.304;6.866;2023-07-29T16:36:00;22.80;99.90
25128;DHT22;13107;51.304;6.866;2023-07-29T16:40:03;22.70;99.90
25128;DHT22;13107;51.304;6.866;2023-07-29T16:44:06;22.60;99.90
25128;DHT22;13107;51.304;6.866;2023-07-29T16:48:07;22.50;99.90
25128;DHT22;13107;51.304;6.866;2023-07-29T16:52:09;22.30;99.90
25128;DHT22;13107;51.304;6.866;2023-07-29T16:56:11;22.20;99.90
25128;DHT22;13107;51.304;6.866;2023-07-29T17:00:13;22.10;99.90
25128;DHT22;13107;51.304;6.866;2023-07-29T17:04:14;22.10;99.90
25128;DHT22;13107;51.304;6.866;2023-07-29T17:08:16;22.00;99.90
25128;DHT22;13107;51.304;6.866;2023-07-29T17:12:18;21.90;99.90
25128;DHT22;13107;51.304;6.866;2023-07-29T17:16:19;21.90;99.90
25128;DHT22;13107;51.304;6.866;2023-07-29T17:20:21;21.80;99.90
25128;DHT22;13107;51.304;6.866;2023-07-29T17:24:23;21.80;99.90
25128;DHT22;13107;51.304;6.866;2023-07-29T17:28:25;21.80;99.90
25128;DHT22;13107;51.304;6.866;2023-07-29T17:32:27;21.80;99.90
25128;DHT22;13107;51.304;6.866;2023-07-29T17:36:29;21.80;99.90
25128;DHT22;13107;51.304;6.866;2023-07-29T17:40:30;21.70;99.90
25128;DHT22;13107;51.304;6.866;2023-07-29T17:44:32;21.70;99.90
25128;DHT22;13107;51.304;6.866;2023-07-29T17:48:34;21.80;99.90
25128;DHT22;13107;51.304;6.866;2023-07-29T17:52:36;21.80;99.90
25128;DHT22;13107;51.304;6.866;2023-07-29T17:56:37;21.80;99.90
25128;DHT22;13107;51.304;6.866;2023-07-29T18:00:40;21.90;99.90
25128;DHT22;13107;51.304;6.866;2023-07-29T18:04:42;21.90;99.90
25128;DHT22;13107;51.304;6.866;2023-07-29T18:08:45;21.90;99.90
25128;DHT22;13107;51.304;6.866;2023-07-29T18:12:46;21.80;99.90
25128;DHT22;13107;51.304;6.866;2023-07-29T18:16:48;21.70;99.90
25128;DHT22;13107;51.304;6.866;2023-07-29T18:20:50;21.80;99.90
25128;DHT22;13107;51.304;6.866;2023-07-29T18:24:52;21.70;99.90
25128;DHT22;13107;51.304;6.866;2023-07-29T18:28:53;21.50;99.90
25128;DHT22;13107;51.304;6.866;2023-07-29T18:32:58;21.40;99.90
25128;DHT22;13107;51.304;6.866;2023-07-29T18:37:00;21.30;99.90
25128;DHT22;13107;51.304;6.866;2023-07-29T18:41:01;21.10;99.90
25128;DHT22;13107;51.304;6.866;2023-07-29T18:45:04;20.90;99.90
25128;DHT22;13107;51.304;6.866;2023-07-29T18:49:06;20.70;99.90
25128;DHT22;13107;51.304;6.866;2023-07-29T18:53:09;20.10;99.90
25128;DHT22;13107;51.304;6.866;2023-07-29T18:57:12;19.70;99.90
25128;DHT22;13107;51.304;6.866;2023-07-29T19:01:14;19.20;99.90
25128;DHT22;13107;51.304;6.866;2023-07-29T19:05:17;19.10;99.90
25128;DHT22;13107;51.304;6.866;2023-07-29T19:09:18;18.90;99.90
25128;DHT22;13107;51.304;6.866;2023-07-29T19:13:20;18.80;99.90
25128;DHT22;13107;51.304;6.866;2023-07-29T19:17:22;18.60;99.90
25128;DHT22;13107;51.304;6.866;2023-07-29T19:21:24;18.60;99.90
25128;DHT22;13107;51.304;6.866;2023-07-29T19:25:26;18.50;99.90
25128;DHT22;13107;51.304;6.866;2023-07-29T19:29:27;18.40;99.90
25128;DHT22;13107;51.304;6.866;2023-07-29T19:33:29;18.30;99.90
25128;DHT22;13107;51.304;6.866;2023-07-29T19:37:31;18.10;99.90
25128;DHT22;13107;51.304;6.866;2023-07-29T19:41:32;18.10;99.90
25128;DHT22;13107;51.304;6.866;2023-07-29T19:45:34;18.00;99.90
25128;DHT22;13107;51.304;6.866;2023-07-29T19:49:36;17.90;99.90
25128;DHT22;13107;51.304;6.866;2023-07-29T19:53:38;17.90;99.90
25128;DHT22;13107;51.304;6.866;2023-07-29T19:57:40;17.80;99.90
25128;DHT22;13107;51.304;6.866;2023-07-29T20:01:41;17.80;99.90
25128;DHT22;13107;51.304;6.866;2023-07-29T20:05:43;17.80;99.90
25128;DHT22;13107;51.304;6.866;2023-07-29T20:09:45;17.60;99.90
25128;DHT22;13107;51.304;6.866;2023-07-29T20:13:47;17.60;99.90
25128;DHT22;13107;51.304;6.866;2023-07-29T20:17:49;17.50;99.90
25128;DHT22;13107;51.304;6.866;2023-07-29T20:21:51;17.50;99.90
25128;DHT22;13107;51.304;6.866;2023-07-29T20:25:53;17.50;99.90
25128;DHT22;13107;51.304;6.866;2023-07-29T20:29:54;17.40;99.90
25128;DHT22;13107;51.304;6.866;2023-07-29T20:33:56;17.40;99.90
25128;DHT22;13107;51.304;6.866;2023-07-29T20:37:58;17.40;99.90
25128;DHT22;13107;51.304;6.866;2023-07-29T20:42:00;17.40;99.90
25128;DHT22;13107;51.304;6.866;2023-07-29T20:46:01;17.40;99.90
25128;DHT22;13107;51.304;6.866;2023-07-29T20:50:03;17.40;99.90
25128;DHT22;13107;51.304;6.866;2023-07-29T20:54:05;17.40;99.90
25128;DHT22;13107;51.304;6.866;2023-07-29T20:58:07;17.40;99.90
25128;DHT22;13107;51.304;6.866;2023-07-29T21:02:09;17.40;99.90
25128;DHT22;13107;51.304;6.866;2023-07-29T21:06:11;17.40;99.90
25128;DHT22;13107;51.304;6.866;2023-07-29T21:10:13;17.50;99.90
25128;DHT22;13107;51.304;6.866;2023-07-29T21:14:15;17.50;99.90
25128;DHT22;13107;51.304;6.866;2023-07-29T21:18:17;17.50;99.90
25128;DHT22;13107;51.304;6.866;2023-07-29T21:22:19;17.40;99.90
25128;DHT22;13107;51.304;6.866;2023-07-29T21:26:21;17.30;99.90
25128;DHT22;13107;51.304;6.866;2023-07-29T21:30:22;17.30;99.90
25128;DHT22;13107;51.304;6.866;2023-07-29T21:34:24;17.40;99.90
25128;DHT22;13107;51.304;6.866;2023-07-29T21:38:26;17.30;99.90
25128;DHT22;13107;51.304;6.866;2023-07-29T21:42:31;17.40;99.90
25128;DHT22;13107;51.304;6.866;2023-07-29T21:46:34;17.40;99.90
25128;DHT22;13107;51.304;6.866;2023-07-29T21:50:35;17.40;99.90
25128;DHT22;13107;51.304;6.866;2023-07-29T21:54:37;17.40;99.90
25128;DHT22;13107;51.304;6.866;2023-07-29T21:58:39;17.40;99.90
25128;DHT22;13107;51.304;6.866;2023-07-29T22:02:41;17.40;99.90
25128;DHT22;13107;51.304;6.866;2023-07-29T22:06:42;17.40;99.90
25128;DHT22;13107;51.304;6.866;2023-07-29T22:10:44;17.40;99.90
25128;DHT22;13107;51.304;6.866;2023-07-29T22:14:46;17.30;99.90
25128;DHT22;13107;51.304;6.866;2023-07-29T22:18:48;17.30;99.90
25128;DHT22;13107;51.304;6.866;2023-07-29T22:22:49;17.30;99.90
25128;DHT22;13107;51.304;6.866;2023-07-29T22:26:51;17.30;99.90
25128;DHT22;13107;51.304;6.866;2023-07-29T22:30:53;17.30;99.90
25128;DHT22;13107;51.304;6.866;2023-07-29T22:34:55;17.20;99.90
25128;DHT22;13107;51.304;6.866;2023-07-29T22:38:56;17.20;99.90
25128;DHT22;13107;51.304;6.866;2023-07-29T22:42:58;17.10;99.90
25128;DHT22;13107;51.304;6.866;2023-07-29T22:47:00;17.00;99.90
25128;DHT22;13107;51.304;6.866;2023-07-29T22:51:02;16.90;99.90
25128;DHT22;13107;51.304;6.866;2023-07-29T22:55:04;16.80;99.90
25128;DHT22;13107;51.304;6.866;2023-07-29T22:59:05;16.70;99.90
25128;DHT22;13107;51.304;6.866;2023-07-29T23:03:09;16.60;99.90
25128;DHT22;13107;51.304;6.866;2023-07-29T23:07:11;16.50;99.90
25128;DHT22;13107;51.304;6.866;2023-07-29T23:11:13;16.30;99.90
25128;DHT22;13107;51.304;6.866;2023-07-29T23:15:14;16.10;99.90
25128;DHT22;13107;51.304;6.866;2023-07-29T23:19:16;15.90;99.90
25128;DHT22;13107;51.304;6.866;2023-07-29T23:23:19;15.90;99.90
25128;DHT22;13107;51.304;6.866;2023-07-29T23:27:21;15.80;99.90
25128;DHT22;13107;51.304;6.866;2023-07-29T23:31:22;15.70;99.90
25128;DHT22;13107;51.304;6.866;2023-07-29T23:35:24;15.60;99.90
25128;DHT22;13107;51.304;6.866;2023-07-29T23:39:26;15.50;99.90
25128;DHT22;13107;51.304;6.866;2023-07-29T23:43:28;15.40;99.90
25128;DHT22;13107;51.304;6.866;2023-07-29T23:47:29;15.30;99.90
25128;DHT22;13107;51.304;6.866;2023-07-29T23:51:31;15.20;99.90
25128;DHT22;13107;51.304;6.866;2023-07-29T23:55:33;15.10;99.90
25128;DHT22;13107;51.304;6.866;2023-07-29T23:59:34;15.10;99.90
